Terminal Aerodrome Forecast
Issued by NWS Wilmington, NC

Home | Current Version | Previous Version | Text Only | Print | Product List | Glossary On
Versions: 1 2 3 4 5 6 7 8 9 10 11 12
000
FTUS42 KILM 211720
TAFMYR
TAF
KMYR 211720Z 2118/2218 09006KT P6SM BKN040
     FM212300 12006KT P6SM VCSH SCT025 BKN040
      TEMPO 2203/2207 4SM -SHRA BKN025
     FM220700 22005KT 3SM -DZ BR BKN006
     FM221000 31006KT 4SM BR BKN004
     FM221600 34010KT P6SM SCT010=

USA.gov is the U.S. government's official web portal to all federal, state and local government web resources and services.